sensor_id;sensor_type;location;lat;lon;timestamp;pressure;altitude;pressure_sealevel;temperature;humidity
62710;BME280;48770;51.624;5.886;2023-04-07T00:00:16;101254.75;;;19.44;34.62
62710;BME280;48770;51.624;5.886;2023-04-07T00:02:42;101254.75;;;19.44;34.55
62710;BME280;48770;51.624;5.886;2023-04-07T00:05:07;101259.47;;;19.43;34.66
62710;BME280;48770;51.624;5.886;2023-04-07T00:07:32;101258.66;;;19.42;34.58
62710;BME280;48770;51.624;5.886;2023-04-07T00:09:58;101266.97;;;19.42;34.72
62710;BME280;48770;51.624;5.886;2023-04-07T00:12:23;101255.88;;;19.42;34.50
62710;BME280;48770;51.624;5.886;2023-04-07T00:14:48;101259.47;;;19.43;34.38
62710;BME280;48770;51.624;5.886;2023-04-07T00:17:14;101264.22;;;19.42;34.69
62710;BME280;48770;51.624;5.886;2023-04-07T00:19:39;101261.44;;;19.42;34.42
62710;BME280;48770;51.624;5.886;2023-04-07T00:22:05;101265.03;;;19.43;34.51
62710;BME280;48770;51.624;5.886;2023-04-07T00:24:30;101265.03;;;19.43;34.56
62710;BME280;48770;51.624;5.886;2023-04-07T00:26:56;101260.63;;;19.42;34.54
62710;BME280;48770;51.624;5.886;2023-04-07T00:29:21;101264.22;;;19.42;34.45
62710;BME280;48770;51.624;5.886;2023-04-07T00:31:47;101264.22;;;19.42;34.62
62710;BME280;48770;51.624;5.886;2023-04-07T00:34:12;101261.44;;;19.42;34.61
62710;BME280;48770;51.624;5.886;2023-04-07T00:36:38;101264.22;;;19.42;34.58
62710;BME280;48770;51.624;5.886;2023-04-07T00:39:03;101263.41;;;19.42;34.62
62710;BME280;48770;51.624;5.886;2023-04-07T00:41:28;101259.81;;;19.41;34.50
62710;BME280;48770;51.624;5.886;2023-04-07T00:43:54;101258.19;;;19.40;34.62
62710;BME280;48770;51.624;5.886;2023-04-07T00:46:21;101266.97;;;19.42;34.70
62710;BME280;48770;51.624;5.886;2023-04-07T00:48:48;101264.53;;;19.41;34.30
62710;BME280;48770;51.624;5.886;2023-04-07T00:51:13;101261.44;;;19.42;34.57
62710;BME280;48770;51.624;5.886;2023-04-07T00:53:39;101265.34;;;19.41;34.70
62710;BME280;48770;51.624;5.886;2023-04-07T00:56:05;101262.59;;;19.41;34.44
62710;BME280;48770;51.624;5.886;2023-04-07T00:58:30;101261.78;;;19.41;34.44
62710;BME280;48770;51.624;5.886;2023-04-07T01:01:08;101260.94;;;19.40;34.62
62710;BME280;48770;51.624;5.886;2023-04-07T01:03:39;101256.56;;;19.39;34.66
62710;BME280;48770;51.624;5.886;2023-04-07T01:06:12;101263.72;;;19.40;34.79
62710;BME280;48770;51.624;5.886;2023-04-07T01:12:02;101257.38;;;19.40;34.70
62710;BME280;48770;51.624;5.886;2023-04-07T01:14:02;101262.91;;;19.40;34.65
62710;BME280;48770;51.624;5.886;2023-04-07T01:16:34;101265.69;;;19.40;34.53
62710;BME280;48770;51.624;5.886;2023-04-07T01:19:14;101263.59;;;19.37;34.65
62710;BME280;48770;51.624;5.886;2023-04-07T01:21:43;101256.88;;;19.38;34.51
62710;BME280;48770;51.624;5.886;2023-04-07T01:24:32;101254.44;;;19.36;34.76
62710;BME280;48770;51.624;5.886;2023-04-07T01:27:06;101256.06;;;19.37;34.65
62710;BME280;48770;51.624;5.886;2023-04-07T01:29:41;101258.84;;;19.37;34.75
62710;BME280;48770;51.624;5.886;2023-04-07T01:32:13;101265.22;;;19.38;34.58
62710;BME280;48770;51.624;5.886;2023-04-07T01:34:39;101270.41;;;19.39;34.57
62710;BME280;48770;51.624;5.886;2023-04-07T01:37:06;101268.78;;;19.38;34.57
62710;BME280;48770;51.624;5.886;2023-04-07T01:39:32;101273.19;;;19.39;34.69
62710;BME280;48770;51.624;5.886;2023-04-07T01:41:58;101275.16;;;19.39;34.79
62710;BME280;48770;51.624;5.886;2023-04-07T01:44:26;101280.69;;;19.39;34.60
62710;BME280;48770;51.624;5.886;2023-04-07T01:46:53;101272.38;;;19.39;34.60
62710;BME280;48770;51.624;5.886;2023-04-07T01:49:19;101279.56;;;19.40;34.51
62710;BME280;48770;51.624;5.886;2023-04-07T01:51:46;101273.19;;;19.39;34.50
62710;BME280;48770;51.624;5.886;2023-04-07T01:54:16;101273.19;;;19.39;34.58
62710;BME280;48770;51.624;5.886;2023-04-07T01:56:43;101275.97;;;19.39;34.49
62710;BME280;48770;51.624;5.886;2023-04-07T01:59:09;101277.94;;;19.39;34.57
62710;BME280;48770;51.624;5.886;2023-04-07T02:01:34;101285.44;;;19.38;34.75
62710;BME280;48770;51.624;5.886;2023-04-07T02:04:28;101279.41;;;19.36;34.59
62710;BME280;48770;51.624;5.886;2023-04-07T02:07:00;101289.69;;;19.36;34.42
62710;BME280;48770;51.624;5.886;2023-04-07T02:09:30;101287.25;;;19.34;34.61
62710;BME280;48770;51.624;5.886;2023-04-07T02:11:57;101296.84;;;19.37;34.91
62710;BME280;48770;51.624;5.886;2023-04-07T02:14:24;101289.34;;;19.37;34.60
62710;BME280;48770;51.624;5.886;2023-04-07T02:16:50;101297.66;;;19.37;34.65
62710;BME280;48770;51.624;5.886;2023-04-07T02:19:16;101296.84;;;19.37;34.66
62710;BME280;48770;51.624;5.886;2023-04-07T02:21:43;101303.22;;;19.37;34.49
62710;BME280;48770;51.624;5.886;2023-04-07T02:24:10;101306.00;;;19.37;34.49
62710;BME280;48770;51.624;5.886;2023-04-07T02:26:36;101297.66;;;19.37;34.50
62710;BME280;48770;51.624;5.886;2023-04-07T02:29:04;101306.00;;;19.37;34.65
62710;BME280;48770;51.624;5.886;2023-04-07T02:31:30;101301.59;;;19.36;34.80
62710;BME280;48770;51.624;5.886;2023-04-07T02:33:56;101303.56;;;19.36;34.65
62710;BME280;48770;51.624;5.886;2023-04-07T02:36:21;101306.31;;;19.36;34.35
62710;BME280;48770;51.624;5.886;2023-04-07T02:38:46;101300.78;;;19.36;34.87
62710;BME280;48770;51.624;5.886;2023-04-07T02:41:12;101302.75;;;19.35;34.61
62710;BME280;48770;51.624;5.886;2023-04-07T02:43:37;101302.75;;;19.35;34.64
62710;BME280;48770;51.624;5.886;2023-04-07T02:46:02;101303.06;;;19.34;34.93
62710;BME280;48770;51.624;5.886;2023-04-07T02:48:28;101306.31;;;19.36;34.47
62710;BME280;48770;51.624;5.886;2023-04-07T02:50:53;101304.69;;;19.35;34.52
62710;BME280;48770;51.624;5.886;2023-04-07T02:53:18;101301.09;;;19.34;34.66
62710;BME280;48770;51.624;5.886;2023-04-07T02:55:44;101297.53;;;19.34;34.69
62710;BME280;48770;51.624;5.886;2023-04-07T02:58:10;101298.34;;;19.34;34.60
62710;BME280;48770;51.624;5.886;2023-04-07T03:00:35;101291.97;;;19.34;34.71
62710;BME280;48770;51.624;5.886;2023-04-07T03:03:01;101294.75;;;19.34;34.78
62710;BME280;48770;51.624;5.886;2023-04-07T03:05:26;101292.78;;;19.34;34.79
62710;BME280;48770;51.624;5.886;2023-04-07T03:07:51;101294.41;;;19.35;34.61
62710;BME280;48770;51.624;5.886;2023-04-07T03:10:17;101294.41;;;19.35;34.86
62710;BME280;48770;51.624;5.886;2023-04-07T03:12:42;101292.47;;;19.36;34.79
62710;BME280;48770;51.624;5.886;2023-04-07T03:15:08;101302.06;;;19.38;34.65
62710;BME280;48770;51.624;5.886;2023-04-07T03:17:33;101304.03;;;19.38;34.78
62710;BME280;48770;51.624;5.886;2023-04-07T03:19:59;101301.25;;;19.38;34.91
62710;BME280;48770;51.624;5.886;2023-04-07T03:22:25;101298.16;;;19.39;34.83
62710;BME280;48770;51.624;5.886;2023-04-07T03:24:50;101307.28;;;19.40;34.76
62710;BME280;48770;51.624;5.886;2023-04-07T03:27:15;101300.94;;;19.39;34.75
62710;BME280;48770;51.624;5.886;2023-04-07T03:29:41;101303.38;;;19.41;34.81
62710;BME280;48770;51.624;5.886;2023-04-07T03:32:07;101303.38;;;19.41;34.70
62710;BME280;48770;51.624;5.886;2023-04-07T03:34:32;101303.69;;;19.39;34.83
62710;BME280;48770;51.624;5.886;2023-04-07T03:36:57;101306.47;;;19.39;34.65
62710;BME280;48770;51.624;5.886;2023-04-07T03:39:22;101306.13;;;19.41;34.95
62710;BME280;48770;51.624;5.886;2023-04-07T03:41:48;101297.00;;;19.40;34.89
62710;BME280;48770;51.624;5.886;2023-04-07T03:44:13;101300.59;;;19.41;34.48
62710;BME280;48770;51.624;5.886;2023-04-07T03:46:38;101300.94;;;19.39;34.72
62710;BME280;48770;51.624;5.886;2023-04-07T03:49:04;101301.75;;;19.40;34.81
62710;BME280;48770;51.624;5.886;2023-04-07T03:51:30;101295.38;;;19.39;34.75
62710;BME280;48770;51.624;5.886;2023-04-07T03:53:57;101307.63;;;19.38;34.77
62710;BME280;48770;51.624;5.886;2023-04-07T03:56:22;101304.03;;;19.38;34.83
62710;BME280;48770;51.624;5.886;2023-04-07T03:58:48;101313.16;;;19.38;34.77
62710;BME280;48770;51.624;5.886;2023-04-07T04:01:14;101316.75;;;19.39;35.03
62710;BME280;48770;51.624;5.886;2023-04-07T04:03:40;101318.72;;;19.38;34.95
62710;BME280;48770;51.624;5.886;2023-04-07T04:06:05;101313.50;;;19.37;34.62
62710;BME280;48770;51.624;5.886;2023-04-07T04:08:31;101307.13;;;19.36;34.80
62710;BME280;48770;51.624;5.886;2023-04-07T04:10:56;101319.03;;;19.37;34.85
62710;BME280;48770;51.624;5.886;2023-04-07T04:13:21;101320.19;;;19.36;34.81
62710;BME280;48770;51.624;5.886;2023-04-07T04:15:47;101318.22;;;19.36;35.05
62710;BME280;48770;51.624;5.886;2023-04-07T04:18:12;101323.78;;;19.36;34.37
62710;BME280;48770;51.624;5.886;2023-04-07T04:20:37;101322.16;;;19.35;34.75
62710;BME280;48770;51.624;5.886;2023-04-07T04:23:03;101320.19;;;19.36;34.71
62710;BME280;48770;51.624;5.886;2023-04-07T04:25:28;101339.59;;;19.36;34.92
62710;BME280;48770;51.624;5.886;2023-04-07T04:27:53;101335.19;;;19.35;34.93
62710;BME280;48770;51.624;5.886;2023-04-07T04:30:19;101331.59;;;19.34;34.87
62710;BME280;48770;51.624;5.886;2023-04-07T04:32:44;101338.78;;;19.35;34.78
62710;BME280;48770;51.624;5.886;2023-04-07T04:35:10;101326.88;;;19.35;34.96
62710;BME280;48770;51.624;5.886;2023-04-07T04:37:35;101331.28;;;19.36;34.85
62710;BME280;48770;51.624;5.886;2023-04-07T04:40:00;101331.28;;;19.36;34.93
62710;BME280;48770;51.624;5.886;2023-04-07T04:42:26;101338.78;;;19.35;34.66
62710;BME280;48770;51.624;5.886;2023-04-07T04:44:52;101335.19;;;19.35;34.74
62710;BME280;48770;51.624;5.886;2023-04-07T04:47:17;101338.78;;;19.35;34.85
62710;BME280;48770;51.624;5.886;2023-04-07T04:49:43;101337.97;;;19.35;34.85
62710;BME280;48770;51.624;5.886;2023-04-07T04:52:08;101337.16;;;19.34;34.83
62710;BME280;48770;51.624;5.886;2023-04-07T04:54:33;101339.94;;;19.34;34.68
62710;BME280;48770;51.624;5.886;2023-04-07T04:56:58;101349.06;;;19.35;34.79
62710;BME280;48770;51.624;5.886;2023-04-07T04:59:25;101348.25;;;19.34;34.95
62710;BME280;48770;51.624;5.886;2023-04-07T05:01:51;101350.22;;;19.34;34.79
62710;BME280;48770;51.624;5.886;2023-04-07T05:04:16;101350.22;;;19.34;35.08
62710;BME280;48770;51.624;5.886;2023-04-07T05:06:42;101358.53;;;19.34;34.87
62710;BME280;48770;51.624;5.886;2023-04-07T05:09:08;101359.34;;;19.34;34.81
62710;BME280;48770;51.624;5.886;2023-04-07T05:11:33;101364.06;;;19.34;35.09
62710;BME280;48770;51.624;5.886;2023-04-07T05:13:58;101359.34;;;19.34;34.92
62710;BME280;48770;51.624;5.886;2023-04-07T05:16:24;101366.84;;;19.34;34.92
62710;BME280;48770;51.624;5.886;2023-04-07T05:18:49;101362.44;;;19.33;34.85
62710;BME280;48770;51.624;5.886;2023-04-07T05:21:14;101353.31;;;19.32;34.83
62710;BME280;48770;51.624;5.886;2023-04-07T05:23:40;101358.19;;;19.35;34.97
62710;BME280;48770;51.624;5.886;2023-04-07T05:26:05;101354.13;;;19.33;34.78
62710;BME280;48770;51.624;5.886;2023-04-07T05:28:31;101364.88;;;19.34;35.07
62710;BME280;48770;51.624;5.886;2023-04-07T05:30:56;101360.47;;;19.33;34.92
62710;BME280;48770;51.624;5.886;2023-04-07T05:33:21;101364.06;;;19.34;34.88
62710;BME280;48770;51.624;5.886;2023-04-07T05:35:47;101362.44;;;19.33;35.01
62710;BME280;48770;51.624;5.886;2023-04-07T05:38:12;101369.63;;;19.34;34.81
62710;BME280;48770;51.624;5.886;2023-04-07T05:40:38;101376.78;;;19.35;35.03
62710;BME280;48770;51.624;5.886;2023-04-07T05:43:04;101375.50;;;19.32;34.87
62710;BME280;48770;51.624;5.886;2023-04-07T05:45:29;101375.16;;;19.34;34.75
62710;BME280;48770;51.624;5.886;2023-04-07T05:47:55;101378.25;;;19.32;34.86
62710;BME280;48770;51.624;5.886;2023-04-07T05:50:20;101383.00;;;19.32;35.11
62710;BME280;48770;51.624;5.886;2023-04-07T05:52:45;101381.84;;;19.33;34.89
62710;BME280;48770;51.624;5.886;2023-04-07T05:55:11;101396.03;;;19.31;34.89
62710;BME280;48770;51.624;5.886;2023-04-07T05:57:36;101392.13;;;19.32;34.93
62710;BME280;48770;51.624;5.886;2023-04-07T06:00:02;101389.34;;;19.32;35.06
62710;BME280;48770;51.624;5.886;2023-04-07T06:02:28;101386.25;;;19.34;34.94
62710;BME280;48770;51.624;5.886;2023-04-07T06:04:54;101401.25;;;19.33;35.06
62710;BME280;48770;51.624;5.886;2023-04-07T06:07:19;101401.25;;;19.33;34.98
62710;BME280;48770;51.624;5.886;2023-04-07T06:09:44;101409.56;;;19.33;35.04
62710;BME280;48770;51.624;5.886;2023-04-07T06:12:10;101400.44;;;19.32;35.00
62710;BME280;48770;51.624;5.886;2023-04-07T06:14:37;101406.47;;;19.34;34.99
62710;BME280;48770;51.624;5.886;2023-04-07T06:17:03;101406.81;;;19.33;34.86
62710;BME280;48770;51.624;5.886;2023-04-07T06:19:28;101402.88;;;19.34;34.87
62710;BME280;48770;51.624;5.886;2023-04-07T06:21:53;101412.34;;;19.33;34.68
62710;BME280;48770;51.624;5.886;2023-04-07T06:24:18;101416.75;;;19.34;34.87
62710;BME280;48770;51.624;5.886;2023-04-07T06:26:47;101411.22;;;19.34;34.93
62710;BME280;48770;51.624;5.886;2023-04-07T06:29:13;101408.44;;;19.34;34.91
62710;BME280;48770;51.624;5.886;2023-04-07T06:31:39;101409.25;;;19.34;35.06
62710;BME280;48770;51.624;5.886;2023-04-07T06:34:04;101411.22;;;19.34;35.04
62710;BME280;48770;51.624;5.886;2023-04-07T06:36:30;101419.53;;;19.34;34.80
62710;BME280;48770;51.624;5.886;2023-04-07T06:38:55;101416.75;;;19.34;35.00
62710;BME280;48770;51.624;5.886;2023-04-07T06:41:21;101420.66;;;19.33;34.95
62710;BME280;48770;51.624;5.886;2023-04-07T06:43:48;101416.75;;;19.34;34.94
62710;BME280;48770;51.624;5.886;2023-04-07T06:46:15;101419.53;;;19.34;34.89
62710;BME280;48770;51.624;5.886;2023-04-07T06:48:40;101427.84;;;19.34;34.80
62710;BME280;48770;51.624;5.886;2023-04-07T06:51:05;101435.84;;;19.35;34.86
62710;BME280;48770;51.624;5.886;2023-04-07T06:53:32;101432.25;;;19.35;35.06
62710;BME280;48770;51.624;5.886;2023-04-07T06:56:09;101427.50;;;19.35;35.25
62710;BME280;48770;51.624;5.886;2023-04-07T06:58:35;101430.78;;;19.37;35.60
62710;BME280;48770;51.624;5.886;2023-04-07T07:01:01;101435.50;;;19.37;35.86
62710;BME280;48770;51.624;5.886;2023-04-07T07:03:28;101445.44;;;19.38;35.91
62710;BME280;48770;51.624;5.886;2023-04-07T07:05:54;101442.69;;;19.38;36.24
62710;BME280;48770;51.624;5.886;2023-04-07T07:08:21;101439.09;;;19.37;36.21
62710;BME280;48770;51.624;5.886;2023-04-07T07:10:46;101436.81;;;19.39;36.01
62710;BME280;48770;51.624;5.886;2023-04-07T07:13:12;101438.75;;;19.39;36.16
62710;BME280;48770;51.624;5.886;2023-04-07T07:15:37;101440.06;;;19.41;36.36
62710;BME280;48770;51.624;5.886;2023-04-07T07:18:02;101445.59;;;19.41;36.50
62710;BME280;48770;51.624;5.886;2023-04-07T07:20:28;101453.94;;;19.41;36.67
62710;BME280;48770;51.624;5.886;2023-04-07T07:22:53;101451.16;;;19.41;36.36
62710;BME280;48770;51.624;5.886;2023-04-07T07:25:18;101453.94;;;19.41;36.40
62710;BME280;48770;51.624;5.886;2023-04-07T07:27:44;101455.41;;;19.39;36.64
62710;BME280;48770;51.624;5.886;2023-04-07T07:30:10;101462.59;;;19.31;36.80
62710;BME280;48770;51.624;5.886;2023-04-07T07:32:35;101463.25;;;19.28;37.02
62710;BME280;48770;51.624;5.886;2023-04-07T07:35:01;101462.75;;;19.26;37.09
62710;BME280;48770;51.624;5.886;2023-04-07T07:37:26;101467.78;;;19.24;37.29
62710;BME280;48770;51.624;5.886;2023-04-07T07:39:52;101473.84;;;19.26;37.40
62710;BME280;48770;51.624;5.886;2023-04-07T07:42:17;101473.84;;;19.26;37.60
62710;BME280;48770;51.624;5.886;2023-04-07T07:44:42;101472.19;;;19.25;38.05
62710;BME280;48770;51.624;5.886;2023-04-07T07:47:08;101472.19;;;19.25;37.63
62710;BME280;48770;51.624;5.886;2023-04-07T07:49:36;101476.91;;;19.25;37.74
62710;BME280;48770;51.624;5.886;2023-04-07T07:52:02;101472.53;;;19.24;37.68
62710;BME280;48770;51.624;5.886;2023-04-07T07:54:27;101480.03;;;19.23;37.82
62710;BME280;48770;51.624;5.886;2023-04-07T07:56:52;101482.31;;;19.21;37.97
62710;BME280;48770;51.624;5.886;2023-04-07T07:59:18;101482.63;;;19.20;37.90
62710;BME280;48770;51.624;5.886;2023-04-07T08:01:43;101479.03;;;19.19;38.03
62710;BME280;48770;51.624;5.886;2023-04-07T08:04:09;101486.56;;;19.19;37.99
62710;BME280;48770;51.624;5.886;2023-04-07T08:06:34;101484.59;;;19.19;38.05
62710;BME280;48770;51.624;5.886;2023-04-07T08:09:01;101483.44;;;19.20;38.32
62710;BME280;48770;51.624;5.886;2023-04-07T08:11:27;101485.41;;;19.20;38.01
62710;BME280;48770;51.624;5.886;2023-04-07T08:13:52;101485.41;;;19.20;38.12
62710;BME280;48770;51.624;5.886;2023-04-07T08:16:18;101490.13;;;19.19;38.58
62710;BME280;48770;51.624;5.886;2023-04-07T08:18:44;101494.06;;;19.18;38.94
62710;BME280;48770;51.624;5.886;2023-04-07T08:21:09;101496.34;;;19.16;39.02
62710;BME280;48770;51.624;5.886;2023-04-07T08:23:35;101499.75;;;19.13;38.73
62710;BME280;48770;51.624;5.886;2023-04-07T08:26:00;101497.63;;;19.10;38.92
62710;BME280;48770;51.624;5.886;2023-04-07T08:28:25;101502.38;;;19.09;38.98
62710;BME280;48770;51.624;5.886;2023-04-07T08:30:51;101504.31;;;19.09;39.24
62710;BME280;48770;51.624;5.886;2023-04-07T08:33:16;101504.66;;;19.07;39.11
62710;BME280;48770;51.624;5.886;2023-04-07T08:35:41;101510.19;;;19.07;39.46
62710;BME280;48770;51.624;5.886;2023-04-07T08:38:07;101510.53;;;19.06;39.12
62710;BME280;48770;51.624;5.886;2023-04-07T08:40:33;101515.25;;;19.05;39.37
62710;BME280;48770;51.624;5.886;2023-04-07T08:42:59;101513.94;;;19.03;39.00
62710;BME280;48770;51.624;5.886;2023-04-07T08:45:25;101513.75;;;18.99;39.10
62710;BME280;48770;51.624;5.886;2023-04-07T08:47:54;101519.13;;;18.96;39.16
62710;BME280;48770;51.624;5.886;2023-04-07T08:50:21;101523.03;;;18.95;38.93
62710;BME280;48770;51.624;5.886;2023-04-07T08:52:52;101518.63;;;18.94;38.76
62710;BME280;48770;51.624;5.886;2023-04-07T08:55:19;101527.59;;;18.91;38.82
62710;BME280;48770;51.624;5.886;2023-04-07T08:57:45;101525.16;;;18.89;39.08
62710;BME280;48770;51.624;5.886;2023-04-07T09:00:11;101534.59;;;18.88;39.40
62710;BME280;48770;51.624;5.886;2023-04-07T09:02:39;101529.72;;;18.85;39.39
62710;BME280;48770;51.624;5.886;2023-04-07T09:05:06;101534.25;;;18.81;39.18
62710;BME280;48770;51.624;5.886;2023-04-07T09:07:34;101542.09;;;18.79;39.27
62710;BME280;48770;51.624;5.886;2023-04-07T09:09:59;101545.28;;;18.72;39.13
62710;BME280;48770;51.624;5.886;2023-04-07T09:12:28;101538.44;;;18.70;39.24
62710;BME280;48770;51.624;5.886;2023-04-07T09:14:54;101538.91;;;18.63;39.00
62710;BME280;48770;51.624;5.886;2023-04-07T09:17:20;101541.97;;;18.62;39.21
62710;BME280;48770;51.624;5.886;2023-04-07T09:19:46;101541.16;;;18.61;39.30
62710;BME280;48770;51.624;5.886;2023-04-07T09:22:11;101544.25;;;18.60;39.20
62710;BME280;48770;51.624;5.886;2023-04-07T09:24:39;101547.84;;;18.60;39.29
62710;BME280;48770;51.624;5.886;2023-04-07T09:27:15;101550.59;;;18.60;39.35
62710;BME280;48770;51.624;5.886;2023-04-07T09:29:42;101551.44;;;18.61;39.35
62710;BME280;48770;51.624;5.886;2023-04-07T09:32:09;101549.78;;;18.60;39.61
62710;BME280;48770;51.624;5.886;2023-04-07T09:34:37;101552.25;;;18.61;39.57
62710;BME280;48770;51.624;5.886;2023-04-07T09:37:04;101553.38;;;18.60;39.43
62710;BME280;48770;51.624;5.886;2023-04-07T09:39:30;101550.59;;;18.60;39.47
62710;BME280;48770;51.624;5.886;2023-04-07T09:41:56;101547.22;;;18.63;39.59
62710;BME280;48770;51.624;5.886;2023-04-07T09:44:22;101554.25;;;18.69;39.57
62710;BME280;48770;51.624;5.886;2023-04-07T09:46:55;101553.00;;;18.75;39.61
62710;BME280;48770;51.624;5.886;2023-04-07T09:49:22;101547.63;;;18.79;39.46
62710;BME280;48770;51.624;5.886;2023-04-07T09:51:59;101550.25;;;18.84;39.31
62710;BME280;48770;51.624;5.886;2023-04-07T09:54:39;101557.59;;;18.89;39.32
62710;BME280;48770;51.624;5.886;2023-04-07T09:57:07;101558.56;;;18.93;39.04
62710;BME280;48770;51.624;5.886;2023-04-07T09:59:35;101555.97;;;18.96;39.24
62710;BME280;48770;51.624;5.886;2023-04-07T10:02:02;101555.03;;;19.01;39.08
62710;BME280;48770;51.624;5.886;2023-04-07T10:04:28;101558.28;;;19.03;39.15
62710;BME280;48770;51.624;5.886;2023-04-07T10:06:54;101554.06;;;19.05;39.14
62710;BME280;48770;51.624;5.886;2023-04-07T10:09:23;101560.91;;;19.08;38.94
62710;BME280;48770;51.624;5.886;2023-04-07T10:11:50;101561.41;;;19.10;39.16
62710;BME280;48770;51.624;5.886;2023-04-07T10:14:17;101563.84;;;19.12;38.72
62710;BME280;48770;51.624;5.886;2023-04-07T10:16:43;101560.41;;;19.15;38.89
62710;BME280;48770;51.624;5.886;2023-04-07T10:19:10;101562.88;;;19.16;38.83
62710;BME280;48770;51.624;5.886;2023-04-07T10:21:39;101563.34;;;19.18;38.98
62710;BME280;48770;51.624;5.886;2023-04-07T10:24:16;101562.53;;;19.18;38.82
62710;BME280;48770;51.624;5.886;2023-04-07T10:26:51;101567.75;;;19.19;38.93
62710;BME280;48770;51.624;5.886;2023-04-07T10:29:19;101563.84;;;19.20;39.00
62710;BME280;48770;51.624;5.886;2023-04-07T10:31:46;101567.09;;;19.22;38.79
62710;BME280;48770;51.624;5.886;2023-04-07T10:34:12;101568.75;;;19.23;39.03
62710;BME280;48770;51.624;5.886;2023-04-07T10:37:12;101572.66;;;19.22;38.92
62710;BME280;48770;51.624;5.886;2023-04-07T10:39:38;101571.50;;;19.23;38.68
62710;BME280;48770;51.624;5.886;2023-04-07T10:42:04;101575.63;;;19.26;39.02
62710;BME280;48770;51.624;5.886;2023-04-07T10:44:49;101572.00;;;19.25;38.78
62710;BME280;48770;51.624;5.886;2023-04-07T10:47:15;101581.66;;;19.28;39.17
62710;BME280;48770;51.624;5.886;2023-04-07T10:50:19;101580.84;;;19.27;38.88
62710;BME280;48770;51.624;5.886;2023-04-07T10:52:47;101580.84;;;19.27;38.83
62710;BME280;48770;51.624;5.886;2023-04-07T10:58:19;101582.47;;;19.28;38.86
62710;BME280;48770;51.624;5.886;2023-04-07T11:03:31;101584.09;;;19.29;38.94
62710;BME280;48770;51.624;5.886;2023-04-07T11:06:06;101592.91;;;19.31;38.84
62710;BME280;48770;51.624;5.886;2023-04-07T11:10:57;101595.38;;;19.33;38.93
62710;BME280;48770;51.624;5.886;2023-04-07T11:13:23;101597.81;;;19.34;38.98
62710;BME280;48770;51.624;5.886;2023-04-07T11:15:49;101602.22;;;19.35;38.95
62710;BME280;48770;51.624;5.886;2023-04-07T11:18:18;101596.34;;;19.37;38.97
62710;BME280;48770;51.624;5.886;2023-04-07T11:20:50;101599.94;;;19.37;38.92
62710;BME280;48770;51.624;5.886;2023-04-07T11:23:17;101605.47;;;19.37;38.74
62710;BME280;48770;51.624;5.886;2023-04-07T11:25:45;101602.69;;;19.37;38.90
62710;BME280;48770;51.624;5.886;2023-04-07T11:28:11;101607.94;;;19.39;38.75
62710;BME280;48770;51.624;5.886;2023-04-07T11:30:37;101607.09;;;19.38;38.75
62710;BME280;48770;51.624;5.886;2023-04-07T11:33:03;101607.94;;;19.39;38.68
62710;BME280;48770;51.624;5.886;2023-04-07T11:35:28;101614.28;;;19.39;38.61
62710;BME280;48770;51.624;5.886;2023-04-07T11:38:00;101616.25;;;19.39;38.76
62710;BME280;48770;51.624;5.886;2023-04-07T11:40:34;101613.78;;;19.37;38.62
62710;BME280;48770;51.624;5.886;2023-04-07T11:43:00;101619.63;;;19.19;38.81
62710;BME280;48770;51.624;5.886;2023-04-07T11:45:26;101619.00;;;19.30;38.65
62710;BME280;48770;51.624;5.886;2023-04-07T11:47:52;101619.19;;;19.34;38.81
62710;BME280;48770;51.624;5.886;2023-04-07T11:50:37;101617.53;;;19.33;38.50
62710;BME280;48770;51.624;5.886;2023-04-07T11:53:03;101623.25;;;19.36;38.51
62710;BME280;48770;51.624;5.886;2023-04-07T11:55:28;101622.13;;;19.37;38.52
62710;BME280;48770;51.624;5.886;2023-04-07T11:57:53;101626.53;;;19.38;38.48
62710;BME280;48770;51.624;5.886;2023-04-07T12:00:19;101628.97;;;19.40;38.43
62710;BME280;48770;51.624;5.886;2023-04-07T12:02:45;101628.97;;;19.40;38.23
62710;BME280;48770;51.624;5.886;2023-04-07T12:05:11;101634.19;;;19.41;38.37
62710;BME280;48770;51.624;5.886;2023-04-07T12:07:37;101633.06;;;19.42;38.32
62710;BME280;48770;51.624;5.886;2023-04-07T12:10:23;101635.34;;;19.40;38.07
62710;BME280;48770;51.624;5.886;2023-04-07T12:12:51;101644.97;;;19.43;38.23
62710;BME280;48770;51.624;5.886;2023-04-07T12:15:17;101641.38;;;19.42;38.14
62710;BME280;48770;51.624;5.886;2023-04-07T12:17:46;101647.41;;;19.45;37.95
62710;BME280;48770;51.624;5.886;2023-04-07T12:20:12;101643.00;;;19.44;38.34
62710;BME280;48770;51.624;5.886;2023-04-07T12:22:37;101649.69;;;19.42;37.99
62710;BME280;48770;51.624;5.886;2023-04-07T12:25:03;101651.31;;;19.44;37.88
62710;BME280;48770;51.624;5.886;2023-04-07T12:27:28;101648.56;;;19.44;37.83
62710;BME280;48770;51.624;5.886;2023-04-07T12:29:53;101658.81;;;19.43;37.75
62710;BME280;48770;51.624;5.886;2023-04-07T12:32:18;101665.19;;;19.44;37.68
62710;BME280;48770;51.624;5.886;2023-04-07T12:34:44;101661.59;;;19.43;37.86
62710;BME280;48770;51.624;5.886;2023-04-07T12:37:09;101661.59;;;19.43;37.81
62710;BME280;48770;51.624;5.886;2023-04-07T12:39:34;101669.59;;;19.45;37.75
62710;BME280;48770;51.624;5.886;2023-04-07T12:42:00;101661.28;;;19.45;37.89
62710;BME280;48770;51.624;5.886;2023-04-07T12:44:25;101658.50;;;19.45;37.66
62710;BME280;48770;51.624;5.886;2023-04-07T12:46:50;101670.41;;;19.45;37.71
62710;BME280;48770;51.624;5.886;2023-04-07T12:49:16;101674.81;;;19.46;37.74
62710;BME280;48770;51.624;5.886;2023-04-07T12:51:41;101674.81;;;19.46;37.73
62710;BME280;48770;51.624;5.886;2023-04-07T12:54:07;101663.72;;;19.46;37.72
62710;BME280;48770;51.624;5.886;2023-04-07T12:56:32;101667.31;;;19.47;37.54
62710;BME280;48770;51.624;5.886;2023-04-07T12:58:57;101671.41;;;19.49;37.80